Station: Grafton Airport  

  Atmospheric Gas Attenuation - ITU Rec 676-11   ----------------- dB/100km -----------------
Date Time Temp RH % AH g/m3 Dew Point Wind Direction Speed kph Gust kph Barometer mB Rainfall Since 9am 24GHz 47GHz 76GHz 122GHz 134GHz 241GHz
08/05 12:30 20.6 22 3.94 -1.8 13 20 1017.9 0 9.5 17.8 21.1 54.5 38.9 130.5
08/05 12:20 20.5 23 4.09 -1.3 17 20 1017.9 0 9.8 18.0 21.6 55.8 40.5 136.0
08/05 12:10 19.8 24 4.1 -1.3 13 17 1018.3 0 9.9 18.2 21.8 56.4 41.0 137.5
08/05 12:00 19.9 25 4.29 -0.7 9 17 1018.6 0 10.3 18.4 22.4 57.9 42.9 144.3
08/05 11:50 19.9 22 3.78 -2.4 11 13 1018.6 0 9.2 17.8 20.8 53.7 37.7 125.9
08/05 11:40 19.2 24 3.96 -1.8 9 11 1018.9 0 9.6 18.1 21.6 55.7 39.9 133.5
08/05 11:30 19.9 26 4.47 -0.1 9 17 1019.2 0 10.6 18.7 23.0 59.5 44.8 151.0
08/05 11:20 19.1 26 4.26 -0.8 13 13 1019.3 0 10.2 18.6 22.5 58.3 43.0 144.7
08/05 11:10 19.4 26 4.34 -0.6 9 11 1019.4 0 10.4 18.6 22.7 58.8 43.7 147.1
08/05 11:00 18.4 26 4.09 -1.4 9 15 1019.5 0 9.9 18.5 22.2 57.4 41.6 139.6
08/05 10:50 18.2 26 4.04 -1.6 13 17 1019.8 0 9.8 18.5 22.1 57.1 41.2 138.2
08/05 10:40 17.8 27 4.1 -1.4 4 7 1020 0 9.9 18.6 22.4 57.9 42.0 141.1
08/05 10:30 18.1 30 4.63 0.3 7 15 1020.1 0 11.0 19.3 24.0 62.2 47.5 160.4
08/05 10:20 18 29 4.45 -0.3 6 7 1020.3 0 10.7 19.1 23.5 60.8 45.7 153.8
08/05 10:10 16.8 29 4.15 -1.3 0 0 1020.5 0 10.1 18.9 22.9 59.1 43.1 144.7
08/05 10:00 16.2 33 4.55 -0.1 4 11 1020.7 0 10.9 19.6 24.3 63.0 47.8 161.1
08/05 09:50 16.5 33 4.63 0.2 9 11 1020.6 0 11.1 19.6 24.5 63.5 48.5 163.6
08/05 09:40 15.8 36 4.85 0.8 9 11 1020.8 0 11.6 20.1 25.5 66.0 51.4 173.6
08/05 09:30 15.5 34 4.49 -0.3 6 13 1020.9 0 10.8 19.6 24.3 63.0 47.6 160.2
08/05 09:20 14.8 38 4.81 0.6 2 7 1020.8 0 11.5 20.2 25.6 66.5 51.5 174.1
08/05 09:10 15 39 5 1.2 6 7 1020.8 0 11.9 20.4 26.2 68.1 53.6 181.3
08/05 09:00 13.9 39 4.68 0.2 9 13 1020.9 0 11.3 20.2 25.5 66.0 50.6 170.9
08/05 08:50 13.4 41 4.77 0.4 9 11 1021 0 11.5 20.5 25.9 67.3 52.0 175.5
08/05 08:40 13 41 4.65 0.1 7 9 1021.1 0 11.2 20.4 25.6 66.5 50.9 171.6
08/05 08:30 13 44 4.99 1 4 9 1021 0 11.9 20.9 26.8 69.7 54.8 185.4
08/05 08:20 12.8 44 4.93 0.9 0 0 1021 0 11.8 20.8 26.7 69.3 54.2 183.4
08/05 08:10 11.6 46 4.78 0.4 0 2 1021.1 0 11.6 20.9 26.5 68.9 53.3 179.9
08/05 08:00 11.4 46 4.72 0.2 0 0 1021.1 0 11.4 20.9 26.4 68.5 52.7 177.8
08/05 07:50 10.4 53 5.11 1.2 0 0 1021 0 12.3 21.7 28.1 73.1 58.1 196.5
08/05 07:40 9.9 64 5.98 3.4 0 0 1021 0 14.2 23.1 31.6 82.3 69.2 235.7
08/05 07:30 9.4 64 5.79 2.9 0 0 1020.9 0 13.8 22.9 31.0 80.9 67.3 228.7
08/05 07:20 9.5 60 5.46 2.1 0 0 1020.8 0 13.1 22.4 29.7 77.4 63.0 213.9
08/05 07:10 8.5 61 5.21 1.4 0 0 1020.8 0 12.6 22.3 29.2 75.9 60.7 205.5
08/05 07:00 7.9 65 5.34 1.7 0 0 1020.6 0 12.9 22.6 29.9 77.8 62.8 212.8
08/05 06:50 7.9 57 4.68 -0.1 0 0 1020.6 0 11.5 21.6 27.4 71.1 54.6 183.9
08/05 06:40 8.1 51 4.25 -1.4 7 9 1020.6 0 10.5 20.9 25.7 66.7 49.2 165.1
08/05 06:30 8.1 51 4.25 -1.4 7 9 1020.5 0 10.5 20.9 25.7 66.7 49.2 165.1
08/05 06:20 8.6 48 4.13 -1.8 7 9 1020.4 0 10.3 20.6 25.1 65.1 47.5 159.0
08/05 06:10 8.7 48 4.15 -1.7 11 13 1020.3 0 10.3 20.6 25.2 65.2 47.6 159.6
08/05 06:00 8.7 48 4.15 -1.7 11 19 1020.3 0 10.3 20.6 25.2 65.2 47.6 159.6
08/05 05:50 9 47 4.14 -1.7 13 15 1020.2 0 10.3 20.5 25.1 64.9 47.3 158.6
08/05 05:40 8.8 48 4.18 -1.6 11 13 1020.1 0 10.4 20.6 25.3 65.4 47.9 160.7
08/05 05:30 8.9 47 4.12 -1.8 13 17 1020 0 10.2 20.5 25.0 64.7 47.2 158.0
08/05 05:20 9 46 4.06 -2 11 15 1020 0 10.1 20.4 24.8 64.1 46.4 155.3
08/05 05:10 9 46 4.06 -2 13 17 1019.9 0 10.1 20.4 24.8 64.1 46.4 155.3
08/05 05:00 8.5 48 4.1 -1.9 11 15 1019.9 0 10.2 20.6 25.1 64.9 47.2 157.9
08/05 04:50 8.6 48 4.13 -1.8 11 13 1019.9 0 10.3 20.6 25.1 65.1 47.4 158.9
08/05 04:40 8.1 50 4.16 -1.7 9 11 1019.8 0 10.3 20.7 25.4 65.8 48.1 161.2
08/05 04:30 7.3 54 4.27 -1.4 7 9 1019.8 0 10.6 21.1 26.0 67.5 49.9 167.5
08/05 04:20 7.5 53 4.24 -1.4 7 9 1019.6 0 10.5 21.0 25.9 67.0 49.4 165.7
08/05 04:10 7.5 52 4.16 -1.7 7 9 1019.6 0 10.4 20.9 25.6 66.2 48.5 162.3
08/05 04:00 6.8 57 4.36 -1.1 7 9 1019.6 0 10.8 21.3 26.5 68.8 51.3 172.3
08/05 03:50 7.1 55 4.29 -1.3 7 7 1019.5 0 10.6 21.2 26.2 67.8 50.3 168.7
08/05 03:40 6.6 63 4.76 0.1 7 9 1019.5 0 11.7 22.0 28.1 73.0 56.4 190.2
08/05 03:30 6.6 61 4.61 -0.4 6 7 1019.7 0 11.3 21.8 27.5 71.5 54.6 183.7
08/05 03:20 7.1 57 4.45 -0.8 6 6 1019.5 0 11.0 21.4 26.8 69.4 52.2 175.6
08/05 03:10 7.8 52 4.25 -1.4 7 7 1019.5 0 10.5 20.9 25.8 66.9 49.4 165.5
08/05 03:00 8.4 48 4.07 -2 6 9 1019.5 0 10.1 20.5 25.0 64.6 46.8 156.8
08/05 02:50 9.4 43 3.89 -2.5 7 9 1019.5 0 9.7 20.1 24.0 62.1 44.2 147.5
08/05 02:40 9.8 42 3.9 -2.5 7 9 1019.4 0 9.7 20.0 23.9 61.9 44.0 147.1
08/05 02:30 9.9 41 3.83 -2.7 9 11 1019.5 0 9.6 19.9 23.7 61.2 43.2 144.1
08/05 02:20 10.4 39 3.76 -2.9 7 7 1019.2 0 9.4 19.6 23.3 60.1 42.1 140.4
08/05 02:10 11.1 36 3.63 -3.4 9 11 1019.2 0 9.1 19.3 22.6 58.5 40.3 134.1
08/05 02:00 11 37 3.7 -3.1 9 17 1019.2 0 9.3 19.4 22.9 59.2 41.1 137.0
08/05 01:50 11.1 36 3.63 -3.4 11 15 1018.9 0 9.1 19.3 22.6 58.4 40.3 134.0
08/05 01:40 11 37 3.7 -3.1 7 9 1019 0 9.3 19.4 22.9 59.1 41.1 137.0
08/05 01:30 11.3 36 3.67 -3.2 9 13 1019.1 0 9.2 19.3 22.7 58.7 40.6 135.3
08/05 01:20 11.6 34 3.53 -3.7 7 11 1019 0 8.9 19.1 22.2 57.2 38.9 129.3
08/05 01:10 11.7 34 3.56 -3.6 9 11 1018.9 0 9.0 19.1 22.2 57.4 39.2 130.3
08/05 01:00 11.8 34 3.58 -3.5 11 17 1019.1 0 9.0 19.1 22.3 57.5 39.4 130.9
08/05 00:50 12 33 3.52 -3.8 11 13 1019 0 8.9 19.0 22.0 56.8 38.6 128.3
08/05 00:40 12.1 33 3.54 -3.7 15 17 1019 0 8.9 19.0 22.1 56.9 38.8 128.9
08/05 00:20 11.8 34 3.58 -3.5 13 17 1019 0 9.0 19.1 22.3 57.5 39.4 130.9
08/05 00:10 11.5 36 3.72 -3 9 11 1019.1 0 9.3 19.4 22.8 59.0 41.1 136.9
08/05 00:00 11.4 37 3.8 -2.8 2 9 1019.2 0 9.5 19.5 23.1 59.8 42.0 140.3
07/05 23:50 11.7 36 3.77 -2.9 6 7 1019 0 9.4 19.4 22.9 59.3 41.5 138.6
07/05 23:40 12.4 33 3.61 -3.4 11 13 1019.1 0 9.1 19.0 22.2 57.3 39.4 131.2
07/05 23:30 12.6 33 3.65 -3.2 9 17 1019.4 0 9.1 19.0 22.3 57.6 39.8 132.4
07/05 23:20 13.4 31 3.6 -3.4 11 13 1019 0 9.0 18.8 21.9 56.6 38.8 129.2
07/05 23:10 13.7 30 3.55 -3.5 17 20 1019.1 0 8.9 18.7 21.7 55.9 38.1 126.8
07/05 23:00 13.8 30 3.57 -3.5 11 20 1019.2 0 8.9 18.7 21.7 56.0 38.3 127.5
07/05 22:50 13.9 31 3.72 -2.9 11 15 1019.2 0 9.2 18.9 22.2 57.3 39.9 133.0
07/05 22:40 13.8 31 3.69 -3 9 11 1019 0 9.2 18.8 22.1 57.1 39.6 132.0
07/05 22:30 14.2 31 3.79 -2.7 11 17 1019.1 0 9.4 18.9 22.3 57.7 40.5 135.2
07/05 22:20 14.3 31 3.81 -2.6 7 9 1019 0 9.4 18.9 22.4 57.8 40.7 135.8
07/05 22:10 14.8 28 3.55 -3.5 7 9 1019.1 0 8.9 18.5 21.4 55.2 37.6 125.2
07/05 22:00 15.3 27 3.53 -3.6 13 30 1019 0 8.8 18.3 21.2 54.7 37.2 123.7
07/05 21:50 15.4 26 3.42 -4 11 19 1018.9 0 8.6 18.2 20.8 53.6 36.0 119.4
07/05 21:40 16 25 3.41 -4 17 20 1018.5 0 8.5 18.0 20.6 53.2 35.6 118.2
07/05 21:30 16.1 26 3.56 -3.4 17 28 1018.8 0 8.9 18.2 21.1 54.4 37.1 123.6
07/05 21:20 16.5 27 3.79 -2.5 17 22 1018.3 0 9.3 18.4 21.7 56.0 39.4 131.5
07/05 21:10 16.6 30 4.24 -1 22 28 1018.2 0 10.3 19.0 23.1 59.8 44.1 148.2
07/05 21:00 17.2 33 4.83 0.8 22 35 1018.1 0 11.5 19.6 24.9 64.5 50.1 169.5
07/05 20:50 17.7 34 5.13 1.7 26 30 1017.7 0 12.1 19.9 25.7 66.8 53.1 180.0
07/05 20:40 17.9 37 5.65 3 22 30 1017.3 0 13.2 20.6 27.4 71.2 58.7 199.7
07/05 20:30 18.1 39 6.03 3.9 20 33 1016.9 0 14.0 21.1 28.6 74.5 62.8 214.2
07/05 20:20 18.4 39 6.13 4.2 24 28 1016.5 0 14.2 21.1 28.8 75.1 63.7 217.3
07/05 20:10 17.9 38 5.8 3.4 11 13 1016.6 0 13.5 20.8 27.9 72.5 60.4 205.5
07/05 20:00 17 38 5.5 2.6 9 15 1016.4 0 12.9 20.5 27.1 70.6 57.6 195.8
07/05 19:50 18.5 33 5.22 1.9 6 7 1015.9 0 12.3 19.8 25.7 66.8 53.5 181.4

Last Refresh: 08-May-2026 12:08:30

Bureau of Meteorology